sensor_id;sensor_type;location;lat;lon;timestamp;temperature;humidity
12853;DHT22;6495;51.808;7.478;2022-10-16T00:01:27;14.20;99.90
12853;DHT22;6495;51.808;7.478;2022-10-16T00:03:58;14.20;99.90
12853;DHT22;6495;51.808;7.478;2022-10-16T00:06:29;14.20;99.90
12853;DHT22;6495;51.808;7.478;2022-10-16T00:08:58;14.20;99.90
12853;DHT22;6495;51.808;7.478;2022-10-16T00:11:28;14.20;99.90
12853;DHT22;6495;51.808;7.478;2022-10-16T00:14:01;14.20;99.90
12853;DHT22;6495;51.808;7.478;2022-10-16T00:16:30;14.20;99.90
12853;DHT22;6495;51.808;7.478;2022-10-16T00:18:58;14.20;99.90
12853;DHT22;6495;51.808;7.478;2022-10-16T00:21:29;14.20;99.90
12853;DHT22;6495;51.808;7.478;2022-10-16T00:24:00;14.20;99.90
12853;DHT22;6495;51.808;7.478;2022-10-16T00:26:33;14.20;99.90
12853;DHT22;6495;51.808;7.478;2022-10-16T00:29:02;14.20;99.90
12853;DHT22;6495;51.808;7.478;2022-10-16T00:31:31;14.20;99.90
12853;DHT22;6495;51.808;7.478;2022-10-16T00:34:00;14.20;99.90
12853;DHT22;6495;51.808;7.478;2022-10-16T00:36:29;14.20;99.90
12853;DHT22;6495;51.808;7.478;2022-10-16T00:38:58;14.20;99.90
12853;DHT22;6495;51.808;7.478;2022-10-16T00:41:27;14.20;99.90
12853;DHT22;6495;51.808;7.478;2022-10-16T00:43:57;14.20;99.90
12853;DHT22;6495;51.808;7.478;2022-10-16T00:46:29;14.20;99.90
12853;DHT22;6495;51.808;7.478;2022-10-16T00:49:05;14.20;99.90
12853;DHT22;6495;51.808;7.478;2022-10-16T00:51:39;14.20;99.90
12853;DHT22;6495;51.808;7.478;2022-10-16T00:54:11;14.20;99.90
12853;DHT22;6495;51.808;7.478;2022-10-16T00:56:42;14.20;99.90
12853;DHT22;6495;51.808;7.478;2022-10-16T00:59:16;14.20;99.90
12853;DHT22;6495;51.808;7.478;2022-10-16T01:01:46;14.20;99.90
12853;DHT22;6495;51.808;7.478;2022-10-16T01:04:14;14.20;99.90
12853;DHT22;6495;51.808;7.478;2022-10-16T01:06:50;14.20;99.90
12853;DHT22;6495;51.808;7.478;2022-10-16T01:09:31;14.20;99.90
12853;DHT22;6495;51.808;7.478;2022-10-16T01:12:09;14.10;99.90
12853;DHT22;6495;51.808;7.478;2022-10-16T01:14:45;14.10;99.90
12853;DHT22;6495;51.808;7.478;2022-10-16T01:17:21;14.10;99.90
12853;DHT22;6495;51.808;7.478;2022-10-16T01:20:07;14.10;99.90
12853;DHT22;6495;51.808;7.478;2022-10-16T01:22:56;14.10;99.90
12853;DHT22;6495;51.808;7.478;2022-10-16T01:26:15;14.10;99.90
12853;DHT22;6495;51.808;7.478;2022-10-16T01:29:00;14.00;99.90
12853;DHT22;6495;51.808;7.478;2022-10-16T01:31:34;14.00;99.90
12853;DHT22;6495;51.808;7.478;2022-10-16T01:34:10;14.00;99.90
12853;DHT22;6495;51.808;7.478;2022-10-16T01:36:46;14.00;99.90
12853;DHT22;6495;51.808;7.478;2022-10-16T01:39:20;14.00;99.90
12853;DHT22;6495;51.808;7.478;2022-10-16T01:41:54;13.90;99.90
12853;DHT22;6495;51.808;7.478;2022-10-16T01:44:31;13.90;99.90
12853;DHT22;6495;51.808;7.478;2022-10-16T01:47:03;13.90;99.90
12853;DHT22;6495;51.808;7.478;2022-10-16T01:49:34;13.90;99.90
12853;DHT22;6495;51.808;7.478;2022-10-16T01:52:06;13.90;99.90
12853;DHT22;6495;51.808;7.478;2022-10-16T01:54:41;13.80;99.90
12853;DHT22;6495;51.808;7.478;2022-10-16T01:57:13;13.80;99.90
12853;DHT22;6495;51.808;7.478;2022-10-16T01:59:46;13.80;99.90
12853;DHT22;6495;51.808;7.478;2022-10-16T02:02:20;13.80;99.90
12853;DHT22;6495;51.808;7.478;2022-10-16T02:05:00;13.70;99.90
12853;DHT22;6495;51.808;7.478;2022-10-16T02:07:32;13.70;99.90
12853;DHT22;6495;51.808;7.478;2022-10-16T02:10:00;13.70;99.90
12853;DHT22;6495;51.808;7.478;2022-10-16T02:12:31;13.70;99.90
12853;DHT22;6495;51.808;7.478;2022-10-16T02:15:03;13.70;99.90
12853;DHT22;6495;51.808;7.478;2022-10-16T02:17:31;13.70;99.90
12853;DHT22;6495;51.808;7.478;2022-10-16T02:20:00;13.70;99.90
12853;DHT22;6495;51.808;7.478;2022-10-16T02:22:32;13.60;99.90
12853;DHT22;6495;51.808;7.478;2022-10-16T02:25:06;13.60;99.90
12853;DHT22;6495;51.808;7.478;2022-10-16T02:27:41;13.60;99.90
12853;DHT22;6495;51.808;7.478;2022-10-16T02:30:19;13.60;99.90
12853;DHT22;6495;51.808;7.478;2022-10-16T02:32:50;13.60;99.90
12853;DHT22;6495;51.808;7.478;2022-10-16T02:35:21;13.60;99.90
12853;DHT22;6495;51.808;7.478;2022-10-16T02:37:51;13.50;99.90
12853;DHT22;6495;51.808;7.478;2022-10-16T02:40:20;13.50;99.90
12853;DHT22;6495;51.808;7.478;2022-10-16T02:42:52;13.50;99.90
12853;DHT22;6495;51.808;7.478;2022-10-16T02:45:23;13.50;99.90
12853;DHT22;6495;51.808;7.478;2022-10-16T02:47:52;13.40;99.90
12853;DHT22;6495;51.808;7.478;2022-10-16T02:50:20;13.50;99.90
12853;DHT22;6495;51.808;7.478;2022-10-16T02:52:48;13.50;99.90
12853;DHT22;6495;51.808;7.478;2022-10-16T02:55:16;13.40;99.90
12853;DHT22;6495;51.808;7.478;2022-10-16T02:57:44;13.40;99.90
12853;DHT22;6495;51.808;7.478;2022-10-16T03:00:14;13.40;99.90
12853;DHT22;6495;51.808;7.478;2022-10-16T03:02:45;13.40;99.90
12853;DHT22;6495;51.808;7.478;2022-10-16T03:05:13;13.40;99.90
12853;DHT22;6495;51.808;7.478;2022-10-16T03:07:42;13.40;99.90
12853;DHT22;6495;51.808;7.478;2022-10-16T03:10:10;13.30;99.90
12853;DHT22;6495;51.808;7.478;2022-10-16T03:12:38;13.40;99.90
12853;DHT22;6495;51.808;7.478;2022-10-16T03:15:07;13.40;99.90
12853;DHT22;6495;51.808;7.478;2022-10-16T03:17:35;13.40;99.90
12853;DHT22;6495;51.808;7.478;2022-10-16T03:20:06;13.30;99.90
12853;DHT22;6495;51.808;7.478;2022-10-16T03:22:34;13.40;99.90
12853;DHT22;6495;51.808;7.478;2022-10-16T03:25:03;13.40;99.90
12853;DHT22;6495;51.808;7.478;2022-10-16T03:27:31;13.40;99.90
12853;DHT22;6495;51.808;7.478;2022-10-16T03:29:59;13.40;99.90
12853;DHT22;6495;51.808;7.478;2022-10-16T03:32:27;13.40;99.90
12853;DHT22;6495;51.808;7.478;2022-10-16T03:34:56;13.40;99.90
12853;DHT22;6495;51.808;7.478;2022-10-16T03:37:25;13.40;99.90
12853;DHT22;6495;51.808;7.478;2022-10-16T03:39:53;13.40;99.90
12853;DHT22;6495;51.808;7.478;2022-10-16T03:42:21;13.40;99.90
12853;DHT22;6495;51.808;7.478;2022-10-16T03:44:50;13.30;99.90
12853;DHT22;6495;51.808;7.478;2022-10-16T03:47:18;13.40;99.90
12853;DHT22;6495;51.808;7.478;2022-10-16T03:49:48;13.30;99.90
12853;DHT22;6495;51.808;7.478;2022-10-16T03:52:16;13.30;99.90
12853;DHT22;6495;51.808;7.478;2022-10-16T03:54:51;13.30;99.90
12853;DHT22;6495;51.808;7.478;2022-10-16T03:57:19;13.30;99.90
12853;DHT22;6495;51.808;7.478;2022-10-16T03:59:47;13.30;99.90
12853;DHT22;6495;51.808;7.478;2022-10-16T04:02:15;13.30;99.90
12853;DHT22;6495;51.808;7.478;2022-10-16T04:04:43;13.30;99.90
12853;DHT22;6495;51.808;7.478;2022-10-16T04:07:11;13.30;99.90
12853;DHT22;6495;51.808;7.478;2022-10-16T04:09:39;13.30;99.90
12853;DHT22;6495;51.808;7.478;2022-10-16T04:12:08;13.30;99.90
12853;DHT22;6495;51.808;7.478;2022-10-16T04:14:36;13.30;99.90
12853;DHT22;6495;51.808;7.478;2022-10-16T04:17:04;13.40;99.90
12853;DHT22;6495;51.808;7.478;2022-10-16T04:19:32;13.30;99.90
12853;DHT22;6495;51.808;7.478;2022-10-16T04:22:00;13.30;99.90
12853;DHT22;6495;51.808;7.478;2022-10-16T04:24:28;13.30;99.90
12853;DHT22;6495;51.808;7.478;2022-10-16T04:26:56;13.30;99.90
12853;DHT22;6495;51.808;7.478;2022-10-16T04:29:25;13.30;99.90
12853;DHT22;6495;51.808;7.478;2022-10-16T04:31:53;13.30;99.90
12853;DHT22;6495;51.808;7.478;2022-10-16T04:34:21;13.30;99.90
12853;DHT22;6495;51.808;7.478;2022-10-16T04:36:49;13.30;99.90
12853;DHT22;6495;51.808;7.478;2022-10-16T04:39:17;13.30;99.90
12853;DHT22;6495;51.808;7.478;2022-10-16T04:41:45;13.30;99.90
12853;DHT22;6495;51.808;7.478;2022-10-16T04:44:13;13.30;99.90
12853;DHT22;6495;51.808;7.478;2022-10-16T04:46:42;13.30;99.90
12853;DHT22;6495;51.808;7.478;2022-10-16T04:49:11;13.30;99.90
12853;DHT22;6495;51.808;7.478;2022-10-16T04:51:38;13.30;99.90
12853;DHT22;6495;51.808;7.478;2022-10-16T04:54:06;13.30;99.90
12853;DHT22;6495;51.808;7.478;2022-10-16T04:56:36;13.30;99.90
12853;DHT22;6495;51.808;7.478;2022-10-16T04:59:09;13.30;99.90
12853;DHT22;6495;51.808;7.478;2022-10-16T05:01:37;13.30;99.90
12853;DHT22;6495;51.808;7.478;2022-10-16T05:04:07;13.30;99.90
12853;DHT22;6495;51.808;7.478;2022-10-16T05:06:35;13.30;99.90
12853;DHT22;6495;51.808;7.478;2022-10-16T05:09:05;13.30;99.90
12853;DHT22;6495;51.808;7.478;2022-10-16T05:11:33;13.20;99.90
12853;DHT22;6495;51.808;7.478;2022-10-16T05:14:01;13.20;99.90
12853;DHT22;6495;51.808;7.478;2022-10-16T05:16:30;13.20;99.90
12853;DHT22;6495;51.808;7.478;2022-10-16T05:18:58;13.30;99.90
12853;DHT22;6495;51.808;7.478;2022-10-16T05:21:47;13.20;99.90
12853;DHT22;6495;51.808;7.478;2022-10-16T05:24:15;13.20;99.90
12853;DHT22;6495;51.808;7.478;2022-10-16T05:26:43;13.20;99.90
12853;DHT22;6495;51.808;7.478;2022-10-16T05:29:11;13.30;99.90
12853;DHT22;6495;51.808;7.478;2022-10-16T05:31:39;13.20;99.90
12853;DHT22;6495;51.808;7.478;2022-10-16T05:34:07;13.20;99.90
12853;DHT22;6495;51.808;7.478;2022-10-16T05:36:35;13.20;99.90
12853;DHT22;6495;51.808;7.478;2022-10-16T05:39:04;13.20;99.90
12853;DHT22;6495;51.808;7.478;2022-10-16T05:41:32;13.20;99.90
12853;DHT22;6495;51.808;7.478;2022-10-16T05:44:03;13.20;99.90
12853;DHT22;6495;51.808;7.478;2022-10-16T05:46:32;13.20;99.90
12853;DHT22;6495;51.808;7.478;2022-10-16T05:49:01;13.20;99.90
12853;DHT22;6495;51.808;7.478;2022-10-16T05:51:29;13.20;99.90
12853;DHT22;6495;51.808;7.478;2022-10-16T05:53:57;13.20;99.90
12853;DHT22;6495;51.808;7.478;2022-10-16T05:56:26;13.20;99.90
12853;DHT22;6495;51.808;7.478;2022-10-16T05:58:54;13.20;99.90
12853;DHT22;6495;51.808;7.478;2022-10-16T06:01:22;13.20;99.90
12853;DHT22;6495;51.808;7.478;2022-10-16T06:03:51;13.20;99.90
12853;DHT22;6495;51.808;7.478;2022-10-16T06:06:22;13.20;99.90
12853;DHT22;6495;51.808;7.478;2022-10-16T06:08:53;13.20;99.90
12853;DHT22;6495;51.808;7.478;2022-10-16T06:11:24;13.20;99.90
12853;DHT22;6495;51.808;7.478;2022-10-16T06:13:56;13.30;99.90
12853;DHT22;6495;51.808;7.478;2022-10-16T06:16:25;13.20;99.90
12853;DHT22;6495;51.808;7.478;2022-10-16T06:18:55;13.30;99.90
12853;DHT22;6495;51.808;7.478;2022-10-16T06:21:24;13.20;99.90
12853;DHT22;6495;51.808;7.478;2022-10-16T06:23:54;13.20;99.90
12853;DHT22;6495;51.808;7.478;2022-10-16T06:26:25;13.20;99.90
12853;DHT22;6495;51.808;7.478;2022-10-16T06:28:55;13.30;99.90
12853;DHT22;6495;51.808;7.478;2022-10-16T06:31:26;13.30;99.90
12853;DHT22;6495;51.808;7.478;2022-10-16T06:33:57;13.30;99.90
12853;DHT22;6495;51.808;7.478;2022-10-16T06:36:26;13.30;99.90
12853;DHT22;6495;51.808;7.478;2022-10-16T06:38:54;13.40;99.90
12853;DHT22;6495;51.808;7.478;2022-10-16T06:41:22;13.40;99.90
12853;DHT22;6495;51.808;7.478;2022-10-16T06:43:52;13.30;99.90
12853;DHT22;6495;51.808;7.478;2022-10-16T06:46:22;13.40;99.90
12853;DHT22;6495;51.808;7.478;2022-10-16T06:48:52;13.40;99.90
12853;DHT22;6495;51.808;7.478;2022-10-16T06:51:22;13.40;99.90
12853;DHT22;6495;51.808;7.478;2022-10-16T06:53:53;13.40;99.90
12853;DHT22;6495;51.808;7.478;2022-10-16T06:56:31;13.40;99.90
12853;DHT22;6495;51.808;7.478;2022-10-16T06:59:02;13.40;99.90
12853;DHT22;6495;51.808;7.478;2022-10-16T07:01:31;13.40;99.90
12853;DHT22;6495;51.808;7.478;2022-10-16T07:04:00;13.50;99.90
12853;DHT22;6495;51.808;7.478;2022-10-16T07:06:31;13.50;99.90
12853;DHT22;6495;51.808;7.478;2022-10-16T07:09:03;13.50;99.90
12853;DHT22;6495;51.808;7.478;2022-10-16T07:11:33;13.60;99.90
12853;DHT22;6495;51.808;7.478;2022-10-16T07:14:02;13.60;99.90
12853;DHT22;6495;51.808;7.478;2022-10-16T07:16:32;13.60;99.90
12853;DHT22;6495;51.808;7.478;2022-10-16T07:19:02;13.60;99.90
12853;DHT22;6495;51.808;7.478;2022-10-16T07:21:32;13.60;99.90
12853;DHT22;6495;51.808;7.478;2022-10-16T07:24:04;13.70;99.90
12853;DHT22;6495;51.808;7.478;2022-10-16T07:26:35;13.70;99.90
12853;DHT22;6495;51.808;7.478;2022-10-16T07:29:08;13.70;99.90
12853;DHT22;6495;51.808;7.478;2022-10-16T07:31:40;13.70;99.90
12853;DHT22;6495;51.808;7.478;2022-10-16T07:34:09;13.70;99.90
12853;DHT22;6495;51.808;7.478;2022-10-16T07:36:37;13.70;99.90
12853;DHT22;6495;51.808;7.478;2022-10-16T07:39:06;13.70;99.90
12853;DHT22;6495;51.808;7.478;2022-10-16T07:41:34;13.70;99.90
12853;DHT22;6495;51.808;7.478;2022-10-16T07:44:04;13.80;99.90
12853;DHT22;6495;51.808;7.478;2022-10-16T07:46:35;13.90;99.90
12853;DHT22;6495;51.808;7.478;2022-10-16T07:49:03;13.90;99.90
12853;DHT22;6495;51.808;7.478;2022-10-16T07:51:31;14.00;99.90
12853;DHT22;6495;51.808;7.478;2022-10-16T07:53:59;14.10;99.90
12853;DHT22;6495;51.808;7.478;2022-10-16T07:56:28;14.20;99.90
12853;DHT22;6495;51.808;7.478;2022-10-16T07:58:58;14.30;99.90
12853;DHT22;6495;51.808;7.478;2022-10-16T08:01:26;14.40;99.90
12853;DHT22;6495;51.808;7.478;2022-10-16T08:03:56;14.60;99.90
12853;DHT22;6495;51.808;7.478;2022-10-16T08:06:24;14.70;99.90
12853;DHT22;6495;51.808;7.478;2022-10-16T08:08:54;14.80;99.90
12853;DHT22;6495;51.808;7.478;2022-10-16T08:11:22;14.90;99.90
12853;DHT22;6495;51.808;7.478;2022-10-16T08:13:51;15.10;99.90
12853;DHT22;6495;51.808;7.478;2022-10-16T08:16:19;15.20;99.90
12853;DHT22;6495;51.808;7.478;2022-10-16T08:18:47;15.40;99.90
12853;DHT22;6495;51.808;7.478;2022-10-16T08:21:18;15.50;99.90
12853;DHT22;6495;51.808;7.478;2022-10-16T08:23:47;15.70;99.90
12853;DHT22;6495;51.808;7.478;2022-10-16T08:26:22;15.80;99.90
12853;DHT22;6495;51.808;7.478;2022-10-16T08:28:51;15.90;99.90
12853;DHT22;6495;51.808;7.478;2022-10-16T08:31:20;16.10;99.90
12853;DHT22;6495;51.808;7.478;2022-10-16T08:33:48;16.20;99.90
12853;DHT22;6495;51.808;7.478;2022-10-16T08:36:18;16.30;99.90
12853;DHT22;6495;51.808;7.478;2022-10-16T08:38:47;16.40;99.90
12853;DHT22;6495;51.808;7.478;2022-10-16T08:48:08;16.70;99.90
12853;DHT22;6495;51.808;7.478;2022-10-16T08:50:45;16.80;99.90
12853;DHT22;6495;51.808;7.478;2022-10-16T08:53:22;16.90;99.90
12853;DHT22;6495;51.808;7.478;2022-10-16T08:55:53;17.00;99.90
12853;DHT22;6495;51.808;7.478;2022-10-16T08:58:25;17.10;99.90
12853;DHT22;6495;51.808;7.478;2022-10-16T09:00:56;17.20;99.90
12853;DHT22;6495;51.808;7.478;2022-10-16T09:03:52;17.30;99.90
12853;DHT22;6495;51.808;7.478;2022-10-16T09:06:40;17.40;99.90
12853;DHT22;6495;51.808;7.478;2022-10-16T09:12:28;17.60;99.90
12853;DHT22;6495;51.808;7.478;2022-10-16T09:15:15;17.70;99.90
12853;DHT22;6495;51.808;7.478;2022-10-16T09:17:58;17.80;99.90
12853;DHT22;6495;51.808;7.478;2022-10-16T09:20:39;17.90;99.90
12853;DHT22;6495;51.808;7.478;2022-10-16T09:23:18;17.90;99.90
12853;DHT22;6495;51.808;7.478;2022-10-16T09:25:50;18.00;99.90
12853;DHT22;6495;51.808;7.478;2022-10-16T09:28:19;18.10;99.90
12853;DHT22;6495;51.808;7.478;2022-10-16T09:30:48;18.20;99.90
12853;DHT22;6495;51.808;7.478;2022-10-16T09:33:19;18.30;99.90
12853;DHT22;6495;51.808;7.478;2022-10-16T09:35:51;18.30;99.90
12853;DHT22;6495;51.808;7.478;2022-10-16T09:38:23;18.40;99.90
12853;DHT22;6495;51.808;7.478;2022-10-16T09:40:55;18.40;99.90
12853;DHT22;6495;51.808;7.478;2022-10-16T09:43:34;18.40;99.90
12853;DHT22;6495;51.808;7.478;2022-10-16T09:46:08;18.50;99.90
12853;DHT22;6495;51.808;7.478;2022-10-16T09:48:50;18.40;99.90
12853;DHT22;6495;51.808;7.478;2022-10-16T09:51:24;18.50;99.90
12853;DHT22;6495;51.808;7.478;2022-10-16T09:53:56;18.60;99.90
12853;DHT22;6495;51.808;7.478;2022-10-16T09:56:27;18.70;99.90
12853;DHT22;6495;51.808;7.478;2022-10-16T09:58:59;18.80;99.90
12853;DHT22;6495;51.808;7.478;2022-10-16T10:01:31;18.80;99.90
12853;DHT22;6495;51.808;7.478;2022-10-16T10:04:05;18.90;99.90
12853;DHT22;6495;51.808;7.478;2022-10-16T10:06:35;19.00;99.90
12853;DHT22;6495;51.808;7.478;2022-10-16T10:09:14;19.00;99.90
12853;DHT22;6495;51.808;7.478;2022-10-16T10:11:54;19.00;99.90
12853;DHT22;6495;51.808;7.478;2022-10-16T10:14:27;19.10;99.90
12853;DHT22;6495;51.808;7.478;2022-10-16T10:17:11;19.20;99.90
12853;DHT22;6495;51.808;7.478;2022-10-16T10:19:47;19.30;99.90
12853;DHT22;6495;51.808;7.478;2022-10-16T10:22:26;19.30;99.90
12853;DHT22;6495;51.808;7.478;2022-10-16T10:25:07;19.40;99.90
12853;DHT22;6495;51.808;7.478;2022-10-16T10:28:01;19.50;99.90
12853;DHT22;6495;51.808;7.478;2022-10-16T10:30:48;19.60;99.90
12853;DHT22;6495;51.808;7.478;2022-10-16T10:33:28;19.70;99.90
12853;DHT22;6495;51.808;7.478;2022-10-16T10:39:13;20.00;99.90
12853;DHT22;6495;51.808;7.478;2022-10-16T10:42:04;20.10;99.90
12853;DHT22;6495;51.808;7.478;2022-10-16T10:45:05;20.10;99.90
12853;DHT22;6495;51.808;7.478;2022-10-16T10:47:51;20.20;99.90
12853;DHT22;6495;51.808;7.478;2022-10-16T10:50:33;20.30;99.90
12853;DHT22;6495;51.808;7.478;2022-10-16T10:53:21;20.40;99.90
12853;DHT22;6495;51.808;7.478;2022-10-16T10:56:07;20.40;99.90
12853;DHT22;6495;51.808;7.478;2022-10-16T11:01:56;20.50;99.90
12853;DHT22;6495;51.808;7.478;2022-10-16T11:07:52;20.50;99.90
12853;DHT22;6495;51.808;7.478;2022-10-16T11:10:27;20.60;99.90
12853;DHT22;6495;51.808;7.478;2022-10-16T11:13:04;20.60;99.90
12853;DHT22;6495;51.808;7.478;2022-10-16T11:15:45;20.60;99.90
12853;DHT22;6495;51.808;7.478;2022-10-16T11:18:21;20.60;99.90
12853;DHT22;6495;51.808;7.478;2022-10-16T11:20:57;20.60;99.90
12853;DHT22;6495;51.808;7.478;2022-10-16T11:23:33;20.50;99.90
12853;DHT22;6495;51.808;7.478;2022-10-16T11:26:11;20.50;99.90
12853;DHT22;6495;51.808;7.478;2022-10-16T11:28:46;20.50;99.90
12853;DHT22;6495;51.808;7.478;2022-10-16T11:31:22;20.50;99.90
12853;DHT22;6495;51.808;7.478;2022-10-16T11:34:04;20.60;99.90
12853;DHT22;6495;51.808;7.478;2022-10-16T11:36:46;20.70;99.90
12853;DHT22;6495;51.808;7.478;2022-10-16T11:39:20;20.70;99.90
12853;DHT22;6495;51.808;7.478;2022-10-16T11:41:52;20.70;99.90
12853;DHT22;6495;51.808;7.478;2022-10-16T11:44:38;20.60;99.90
12853;DHT22;6495;51.808;7.478;2022-10-16T11:47:26;20.60;99.90
12853;DHT22;6495;51.808;7.478;2022-10-16T11:50:23;20.50;99.90
12853;DHT22;6495;51.808;7.478;2022-10-16T11:53:02;20.40;99.90
12853;DHT22;6495;51.808;7.478;2022-10-16T11:55:39;20.40;99.90
12853;DHT22;6495;51.808;7.478;2022-10-16T11:58:21;20.30;99.90
12853;DHT22;6495;51.808;7.478;2022-10-16T12:00:59;20.20;99.90
12853;DHT22;6495;51.808;7.478;2022-10-16T12:03:40;20.20;99.90
12853;DHT22;6495;51.808;7.478;2022-10-16T12:06:25;20.10;99.90
12853;DHT22;6495;51.808;7.478;2022-10-16T12:09:03;20.10;99.90
12853;DHT22;6495;51.808;7.478;2022-10-16T12:11:36;20.00;99.90
12853;DHT22;6495;51.808;7.478;2022-10-16T12:14:36;20.00;99.90
12853;DHT22;6495;51.808;7.478;2022-10-16T12:17:33;19.90;99.90
12853;DHT22;6495;51.808;7.478;2022-10-16T12:20:26;19.90;99.90
12853;DHT22;6495;51.808;7.478;2022-10-16T12:23:00;19.90;99.90
12853;DHT22;6495;51.808;7.478;2022-10-16T12:25:32;19.90;99.90
12853;DHT22;6495;51.808;7.478;2022-10-16T12:28:04;19.90;99.90
12853;DHT22;6495;51.808;7.478;2022-10-16T12:30:35;19.90;99.90
12853;DHT22;6495;51.808;7.478;2022-10-16T12:33:06;19.80;99.90
12853;DHT22;6495;51.808;7.478;2022-10-16T12:35:48;19.80;99.90
12853;DHT22;6495;51.808;7.478;2022-10-16T12:38:18;19.80;99.90
12853;DHT22;6495;51.808;7.478;2022-10-16T12:40:56;19.80;99.90
12853;DHT22;6495;51.808;7.478;2022-10-16T12:43:38;19.70;99.90
12853;DHT22;6495;51.808;7.478;2022-10-16T12:46:26;19.70;99.90
12853;DHT22;6495;51.808;7.478;2022-10-16T12:49:14;19.70;99.90
12853;DHT22;6495;51.808;7.478;2022-10-16T12:51:51;19.60;99.90
12853;DHT22;6495;51.808;7.478;2022-10-16T12:54:21;19.60;99.90
12853;DHT22;6495;51.808;7.478;2022-10-16T12:57:10;19.60;99.90
12853;DHT22;6495;51.808;7.478;2022-10-16T12:59:53;19.60;99.90
12853;DHT22;6495;51.808;7.478;2022-10-16T13:02:53;19.60;99.90
12853;DHT22;6495;51.808;7.478;2022-10-16T13:05:46;19.60;99.90
12853;DHT22;6495;51.808;7.478;2022-10-16T13:08:39;19.60;99.90
12853;DHT22;6495;51.808;7.478;2022-10-16T13:11:24;19.60;99.90
12853;DHT22;6495;51.808;7.478;2022-10-16T13:14:13;19.60;99.90
12853;DHT22;6495;51.808;7.478;2022-10-16T13:17:00;19.60;99.90
12853;DHT22;6495;51.808;7.478;2022-10-16T13:19:44;19.60;99.90
12853;DHT22;6495;51.808;7.478;2022-10-16T13:22:23;19.60;99.90
12853;DHT22;6495;51.808;7.478;2022-10-16T13:25:10;19.60;99.90
12853;DHT22;6495;51.808;7.478;2022-10-16T13:27:55;19.60;99.90
12853;DHT22;6495;51.808;7.478;2022-10-16T13:30:27;19.60;99.90
12853;DHT22;6495;51.808;7.478;2022-10-16T13:33:00;19.60;99.90
12853;DHT22;6495;51.808;7.478;2022-10-16T13:35:32;19.60;99.90
12853;DHT22;6495;51.808;7.478;2022-10-16T13:38:12;19.60;99.90
12853;DHT22;6495;51.808;7.478;2022-10-16T13:40:53;19.60;99.90
12853;DHT22;6495;51.808;7.478;2022-10-16T13:43:28;19.60;99.90
12853;DHT22;6495;51.808;7.478;2022-10-16T13:46:04;19.60;99.90
12853;DHT22;6495;51.808;7.478;2022-10-16T13:48:34;19.60;99.90
12853;DHT22;6495;51.808;7.478;2022-10-16T13:51:10;19.60;99.90
12853;DHT22;6495;51.808;7.478;2022-10-16T13:53:41;19.60;99.90
12853;DHT22;6495;51.808;7.478;2022-10-16T13:56:12;19.50;99.90
12853;DHT22;6495;51.808;7.478;2022-10-16T13:58:42;19.60;99.90
12853;DHT22;6495;51.808;7.478;2022-10-16T14:01:18;19.50;99.90
12853;DHT22;6495;51.808;7.478;2022-10-16T14:03:51;19.50;99.90
12853;DHT22;6495;51.808;7.478;2022-10-16T14:06:21;19.50;99.90
12853;DHT22;6495;51.808;7.478;2022-10-16T14:08:54;19.50;99.90
12853;DHT22;6495;51.808;7.478;2022-10-16T14:11:27;19.50;99.90
12853;DHT22;6495;51.808;7.478;2022-10-16T14:13:56;19.50;99.90
12853;DHT22;6495;51.808;7.478;2022-10-16T14:16:29;19.60;99.90
12853;DHT22;6495;51.808;7.478;2022-10-16T14:19:01;19.60;99.90
12853;DHT22;6495;51.808;7.478;2022-10-16T14:21:33;19.50;99.90
12853;DHT22;6495;51.808;7.478;2022-10-16T14:24:10;19.50;99.90
12853;DHT22;6495;51.808;7.478;2022-10-16T14:26:41;19.50;99.90
12853;DHT22;6495;51.808;7.478;2022-10-16T14:29:18;19.50;99.90
12853;DHT22;6495;51.808;7.478;2022-10-16T14:31:56;19.50;99.90
12853;DHT22;6495;51.808;7.478;2022-10-16T14:34:30;19.50;99.90
12853;DHT22;6495;51.808;7.478;2022-10-16T14:37:02;19.50;99.90
12853;DHT22;6495;51.808;7.478;2022-10-16T14:39:36;19.50;99.90
12853;DHT22;6495;51.808;7.478;2022-10-16T14:42:04;19.50;99.90
12853;DHT22;6495;51.808;7.478;2022-10-16T14:44:33;19.50;99.90
12853;DHT22;6495;51.808;7.478;2022-10-16T14:47:13;19.50;99.90
12853;DHT22;6495;51.808;7.478;2022-10-16T14:49:43;19.50;99.90
12853;DHT22;6495;51.808;7.478;2022-10-16T14:52:12;19.50;99.90
12853;DHT22;6495;51.808;7.478;2022-10-16T14:54:40;19.50;99.90
12853;DHT22;6495;51.808;7.478;2022-10-16T14:57:16;19.50;99.90
12853;DHT22;6495;51.808;7.478;2022-10-16T14:59:47;19.50;99.90
12853;DHT22;6495;51.808;7.478;2022-10-16T15:02:25;19.50;99.90
12853;DHT22;6495;51.808;7.478;2022-10-16T15:04:55;19.50;99.90
12853;DHT22;6495;51.808;7.478;2022-10-16T15:07:24;19.50;99.90
12853;DHT22;6495;51.808;7.478;2022-10-16T15:09:53;19.50;99.90
12853;DHT22;6495;51.808;7.478;2022-10-16T15:12:23;19.50;99.90
12853;DHT22;6495;51.808;7.478;2022-10-16T15:14:51;19.50;99.90
12853;DHT22;6495;51.808;7.478;2022-10-16T15:17:20;19.50;99.90
12853;DHT22;6495;51.808;7.478;2022-10-16T15:19:49;19.50;99.90
12853;DHT22;6495;51.808;7.478;2022-10-16T15:22:17;19.50;99.90
12853;DHT22;6495;51.808;7.478;2022-10-16T15:24:45;19.50;99.90
12853;DHT22;6495;51.808;7.478;2022-10-16T15:27:13;19.50;99.90
12853;DHT22;6495;51.808;7.478;2022-10-16T15:29:41;19.50;99.90
12853;DHT22;6495;51.808;7.478;2022-10-16T15:32:10;19.50;99.90
12853;DHT22;6495;51.808;7.478;2022-10-16T15:34:40;19.50;99.90
12853;DHT22;6495;51.808;7.478;2022-10-16T15:37:09;19.50;99.90
12853;DHT22;6495;51.808;7.478;2022-10-16T15:39:38;19.50;99.90
12853;DHT22;6495;51.808;7.478;2022-10-16T15:42:07;19.50;99.90
12853;DHT22;6495;51.808;7.478;2022-10-16T15:44:35;19.40;99.90
12853;DHT22;6495;51.808;7.478;2022-10-16T15:47:03;19.40;99.90
12853;DHT22;6495;51.808;7.478;2022-10-16T15:49:31;19.40;99.90
12853;DHT22;6495;51.808;7.478;2022-10-16T15:52:00;19.40;99.90
12853;DHT22;6495;51.808;7.478;2022-10-16T15:54:28;19.30;99.90
12853;DHT22;6495;51.808;7.478;2022-10-16T15:56:56;19.30;99.90
12853;DHT22;6495;51.808;7.478;2022-10-16T15:59:24;19.30;99.90
12853;DHT22;6495;51.808;7.478;2022-10-16T16:01:52;19.30;99.90
12853;DHT22;6495;51.808;7.478;2022-10-16T16:04:21;19.20;99.90
12853;DHT22;6495;51.808;7.478;2022-10-16T16:07:11;19.20;99.90
12853;DHT22;6495;51.808;7.478;2022-10-16T16:09:39;19.20;99.90
12853;DHT22;6495;51.808;7.478;2022-10-16T16:12:07;19.20;99.90
12853;DHT22;6495;51.808;7.478;2022-10-16T16:14:35;19.20;99.90
12853;DHT22;6495;51.808;7.478;2022-10-16T16:17:03;19.10;99.90
12853;DHT22;6495;51.808;7.478;2022-10-16T16:19:31;19.10;99.90
12853;DHT22;6495;51.808;7.478;2022-10-16T16:22:00;19.10;99.90
12853;DHT22;6495;51.808;7.478;2022-10-16T16:24:29;19.00;99.90
12853;DHT22;6495;51.808;7.478;2022-10-16T16:26:57;19.00;99.90
12853;DHT22;6495;51.808;7.478;2022-10-16T16:29:25;18.90;99.90
12853;DHT22;6495;51.808;7.478;2022-10-16T16:31:53;18.80;99.90
12853;DHT22;6495;51.808;7.478;2022-10-16T16:34:24;18.80;99.90
12853;DHT22;6495;51.808;7.478;2022-10-16T16:36:52;18.80;99.90
12853;DHT22;6495;51.808;7.478;2022-10-16T16:39:23;18.70;99.90
12853;DHT22;6495;51.808;7.478;2022-10-16T16:41:54;18.60;99.90